Mora, MN

5:35 PM CST on December 04, 2016 (GMT -0600)
Mora Municipal

Weather History for KJMR - November, 2012

Change the Weather History Date:

Wednesday, November 28, 2012

  Actual Average Record
Temperature  
Mean Temperature 26 °F -  
Max Temperature 32 °F 29 °F 55 °F (1998)
Min Temperature 21 °F 9 °F -25 °F (1985)
Degree Days  
Heating Degree Days 38    
Moisture  
Dew Point 19 °F    
Average Humidity 73    
Maximum Humidity 80    
Minimum Humidity 64    
Precipitation  
Precipitation 0.00 in - - ()
Sea Level Pressure  
Sea Level Pressure 30.22 in    
Wind  
Wind Speed 7 mph (WSW)    
Max Wind Speed 13 mph    
Max Gust Speed 16 mph    
Visibility 10 miles    
Events      
Averages and records for this station are not official NWS values.
T = Trace of Precipitation, MM = Missing Value Source: NWS Daily Summary

Daily Weather History Graph

Daily Weather History Graph

Search for Another Location

Airport or City:

Trip Planner

Search our weather history database for the weather conditions in past years. The results will help you decide how hot, cold, wet, or windy it might be!

Date:

Astronomy

Nov. 28, 2012 Rise Set
Actual Time 7:31 AM CST 4:31 PM CST
Civil Twilight 6:57 AM CST 5:04 PM CST
Nautical Twilight 6:20 AM CST 5:41 PM CST
Astronomical Twilight 5:44 AM CST 6:17 PM CST
Moon 4:46 PM CST (11/28) 7:29 AM CST (11/28)
Length of Visible Light 10h 07m
Length of Day
8h 59m
Full, 100% of the Moon is Illuminated
Nov 28
Full
Dec 6
Last Quarter
Dec 13
New
Dec 19
First Quarter
Dec 28
Full

Hourly Weather History & Observations

Time (CST) Temp. Windchill Dew Point Humidity Pressure Visibility Wind Dir Wind Speed Gust Speed Precip Events Conditions
12:01 AM 26.6 °F 19.1 °F 19.4 °F 74% 30.22 in 10.0 mi NW 6.9 mph - N/A   Overcast
12:21 AM 26.6 °F 18.2 °F 19.4 °F 74% 30.23 in 10.0 mi NW 8.1 mph - N/A   Overcast
12:41 AM 26.6 °F 16.2 °F 19.4 °F 74% 30.23 in 10.0 mi WNW 11.5 mph - N/A   Overcast
1:01 AM 26.6 °F 19.1 °F 19.4 °F 74% 30.24 in 10.0 mi WNW 6.9 mph - N/A   Overcast
1:21 AM 26.6 °F 16.8 °F 19.4 °F 74% 30.24 in 10.0 mi WNW 10.4 mph - N/A   Overcast
1:41 AM 26.6 °F 17.5 °F 19.4 °F 74% 30.25 in 10.0 mi NNW 9.2 mph - N/A   Overcast
2:01 AM 26.6 °F 17.5 °F 19.4 °F 74% 30.25 in 10.0 mi NW 9.2 mph - N/A   Overcast
2:21 AM 26.6 °F 18.2 °F 19.4 °F 74% 30.26 in 10.0 mi NW 8.1 mph - N/A   Overcast
2:41 AM 24.8 °F 16.1 °F 17.6 °F 74% 30.26 in 10.0 mi NW 8.1 mph - N/A   Overcast
3:01 AM 24.8 °F 15.3 °F 17.6 °F 74% 30.27 in 10.0 mi WNW 9.2 mph - N/A   Overcast
3:21 AM 24.8 °F 15.3 °F 17.6 °F 74% 30.27 in 10.0 mi NW 9.2 mph - N/A   Overcast
3:41 AM 23.0 °F 12.4 °F 15.8 °F 74% 30.27 in 10.0 mi WNW 10.4 mph - N/A   Overcast
4:01 AM 23.0 °F 13.1 °F 15.8 °F 74% 30.28 in 10.0 mi NNW 9.2 mph - N/A   Overcast
4:21 AM 21.2 °F 12.6 °F 14.0 °F 74% 30.29 in 10.0 mi NW 6.9 mph - N/A   Overcast
4:41 AM 21.2 °F 10.9 °F 14.0 °F 74% 30.29 in 10.0 mi NW 9.2 mph - N/A   Overcast
5:01 AM 21.2 °F 13.6 °F 14.0 °F 74% 30.29 in 10.0 mi WNW 5.8 mph - N/A   Overcast
5:21 AM 21.2 °F 10.1 °F 14.0 °F 74% 30.30 in 10.0 mi WNW 10.4 mph 16.1 mph N/A   Overcast
5:41 AM 21.2 °F 13.6 °F 14.0 °F 74% 30.30 in 10.0 mi WNW 5.8 mph - N/A   Overcast
6:01 AM 21.2 °F 13.6 °F 14.0 °F 74% 30.30 in 10.0 mi WNW 5.8 mph - N/A   Overcast
6:21 AM 21.2 °F 14.9 °F 14.0 °F 74% 30.30 in 10.0 mi WNW 4.6 mph - N/A   Overcast
6:41 AM 21.2 °F 16.4 °F 14.0 °F 74% 30.30 in 10.0 mi West 3.5 mph - N/A   Overcast
7:01 AM 21.2 °F 13.6 °F 14.0 °F 74% 30.31 in 10.0 mi West 5.8 mph - N/A   Overcast
7:21 AM 21.2 °F 13.6 °F 14.0 °F 74% 30.31 in 10.0 mi West 5.8 mph - N/A   Overcast
7:41 AM 21.2 °F 16.4 °F 14.0 °F 74% 30.30 in 10.0 mi West 3.5 mph - N/A   Overcast
8:01 AM 21.2 °F 14.9 °F 14.0 °F 74% 30.30 in 10.0 mi West 4.6 mph - N/A   Overcast
8:21 AM 23.0 °F 18.4 °F 14.0 °F 68% 30.31 in 10.0 mi WSW 3.5 mph - N/A   Overcast
8:41 AM 23.0 °F 15.8 °F 15.8 °F 74% 30.31 in 10.0 mi SW 5.8 mph - N/A   Overcast
9:01 AM 23.0 °F 18.4 °F 17.6 °F 80% 30.31 in 10.0 mi WSW 3.5 mph - N/A   Overcast
9:21 AM 24.8 °F 20.5 °F 17.6 °F 74% 30.31 in 10.0 mi WSW 3.5 mph - N/A   Overcast
9:41 AM 24.8 °F 17.9 °F 17.6 °F 74% 30.31 in 10.0 mi West 5.8 mph - N/A   Overcast
10:01 AM 26.6 °F 21.2 °F 19.4 °F 74% 30.31 in 10.0 mi SW 4.6 mph - N/A   Overcast
10:21 AM 26.6 °F 20.0 °F 19.4 °F 74% 30.31 in 10.0 mi SW 5.8 mph - N/A   Overcast
10:41 AM 26.6 °F 20.0 °F 19.4 °F 74% 30.31 in 10.0 mi SW 5.8 mph - N/A   Overcast
11:01 AM 26.6 °F 19.1 °F 19.4 °F 74% 30.30 in 10.0 mi SW 6.9 mph - N/A   Overcast
11:21 AM 26.6 °F 20.0 °F 19.4 °F 74% 30.29 in 10.0 mi SW 5.8 mph - N/A   Overcast
11:41 AM 28.4 °F 22.2 °F 19.4 °F 69% 30.28 in 10.0 mi SW 5.8 mph - N/A   Overcast
12:01 PM 28.4 °F 22.2 °F 19.4 °F 69% 30.27 in 10.0 mi WSW 5.8 mph - N/A   Mostly Cloudy
12:21 PM 30.2 °F 22.6 °F 19.4 °F 64% 30.26 in 10.0 mi WSW 8.1 mph - N/A   Scattered Clouds
12:41 PM 30.2 °F 21.9 °F 19.4 °F 64% 30.25 in 10.0 mi SW 9.2 mph - N/A   Scattered Clouds
1:01 PM 32.0 °F 23.6 °F 23.0 °F 69% 30.23 in 10.0 mi SSW 10.4 mph - N/A   Scattered Clouds
1:21 PM 32.0 °F 23.6 °F 23.0 °F 69% 30.22 in 10.0 mi SW 10.4 mph - N/A   Clear
1:41 PM 32.0 °F 22.5 °F 23.0 °F 69% 30.21 in 10.0 mi SW 12.7 mph - N/A   Clear
2:01 PM 32.0 °F 23.0 °F 23.0 °F 69% 30.19 in 10.0 mi SSW 11.5 mph - N/A   Clear
2:21 PM 32.0 °F 24.2 °F 23.0 °F 69% 30.18 in 10.0 mi SW 9.2 mph - N/A   Clear
2:41 PM 32.0 °F 22.5 °F 23.0 °F 69% 30.17 in 10.0 mi SSW 12.7 mph - N/A   Clear
3:01 PM 32.0 °F 23.6 °F 23.0 °F 69% 30.17 in 10.0 mi SSW 10.4 mph - N/A   Clear
3:21 PM 32.0 °F 25.6 °F 23.0 °F 69% 30.17 in 10.0 mi SW 6.9 mph - N/A   Clear
3:41 PM 32.0 °F 25.6 °F 23.0 °F 69% 30.16 in 10.0 mi SSW 6.9 mph - N/A   Clear
4:01 PM 32.0 °F 25.6 °F 23.0 °F 69% 30.15 in 10.0 mi SSW 6.9 mph - N/A   Clear
4:21 PM 30.2 °F 23.4 °F 21.2 °F 69% 30.14 in 10.0 mi SSW 6.9 mph - N/A   Clear
4:41 PM 30.2 °F 25.4 °F 21.2 °F 69% 30.13 in 10.0 mi South 4.6 mph - N/A   Clear
5:01 PM 30.2 °F 24.3 °F 21.2 °F 69% 30.12 in 10.0 mi South 5.8 mph - N/A   Clear
5:21 PM 28.4 °F 24.6 °F 21.2 °F 74% 30.13 in 10.0 mi South 3.5 mph - N/A   Clear
5:41 PM 26.6 °F 20.0 °F 21.2 °F 80% 30.13 in 10.0 mi South 5.8 mph - N/A   Clear
6:01 PM 26.6 °F 20.0 °F 21.2 °F 80% 30.13 in 10.0 mi SSW 5.8 mph - N/A   Clear
6:21 PM 28.4 °F 23.3 °F 21.2 °F 74% 30.13 in 10.0 mi SSW 4.6 mph - N/A   Clear
6:41 PM 28.4 °F 24.6 °F 21.2 °F 74% 30.13 in 10.0 mi SSW 3.5 mph - N/A   Clear
7:01 PM 28.4 °F 22.2 °F 21.2 °F 74% 30.12 in 10.0 mi SSW 5.8 mph - N/A   Clear
7:21 PM 30.2 °F - 23.0 °F 75% 30.12 in 10.0 mi Calm Calm - N/A   Clear
7:41 PM 30.2 °F 26.7 °F 23.0 °F 75% 30.11 in 10.0 mi South 3.5 mph - N/A   Clear
8:01 PM 30.2 °F - 23.0 °F 75% 30.12 in 10.0 mi Calm Calm - N/A   Clear
8:21 PM 28.4 °F - 21.2 °F 74% 30.12 in 10.0 mi Calm Calm - N/A   Clear
8:41 PM 28.4 °F - 21.2 °F 74% 30.11 in 10.0 mi Calm Calm - N/A   Clear
9:01 PM 28.4 °F 24.6 °F 21.2 °F 74% 30.11 in 10.0 mi SSW 3.5 mph - N/A   Clear
9:21 PM 28.4 °F 24.6 °F 23.0 °F 80% 30.11 in 10.0 mi South 3.5 mph - N/A   Clear
9:41 PM 30.2 °F - 23.0 °F 75% 30.10 in 10.0 mi Calm Calm - N/A   Clear
10:01 PM 30.2 °F - 23.0 °F 75% 30.10 in 10.0 mi Calm Calm - N/A   Clear
10:21 PM 28.4 °F - 23.0 °F 80% 30.10 in 10.0 mi Calm Calm - N/A   Clear
10:41 PM 28.4 °F 24.6 °F 23.0 °F 80% 30.10 in 10.0 mi SSE 3.5 mph - N/A   Clear
11:01 PM 28.4 °F - 23.0 °F 80% 30.10 in 10.0 mi Calm Calm - N/A   Clear
11:21 PM 28.4 °F - 23.0 °F 80% 30.10 in 10.0 mi Calm Calm - N/A   Clear
11:41 PM 28.4 °F - 23.0 °F 80% 30.09 in 10.0 mi Calm Calm - N/A   Clear